sensor_id;sensor_type;location;lat;lon;timestamp;P1;durP1;ratioP1;P2;durP2;ratioP2
44438;SDS011;30145;48.874;10.186;2022-08-21T00:01:18;2.93;;;1.63;;
44438;SDS011;30145;48.874;10.186;2022-08-21T00:03:46;1.77;;;1.47;;
44438;SDS011;30145;48.874;10.186;2022-08-21T00:06:13;2.60;;;1.63;;
44438;SDS011;30145;48.874;10.186;2022-08-21T00:08:40;3.27;;;1.90;;
44438;SDS011;30145;48.874;10.186;2022-08-21T00:11:07;3.87;;;2.03;;
44438;SDS011;30145;48.874;10.186;2022-08-21T00:13:35;2.17;;;1.50;;
44438;SDS011;30145;48.874;10.186;2022-08-21T00:16:02;2.93;;;1.70;;
44438;SDS011;30145;48.874;10.186;2022-08-21T00:18:30;3.30;;;1.60;;
44438;SDS011;30145;48.874;10.186;2022-08-21T00:20:57;3.50;;;2.10;;
44438;SDS011;30145;48.874;10.186;2022-08-21T00:23:24;2.93;;;1.80;;
44438;SDS011;30145;48.874;10.186;2022-08-21T00:25:51;5.93;;;2.40;;
44438;SDS011;30145;48.874;10.186;2022-08-21T00:28:18;4.80;;;2.00;;
44438;SDS011;30145;48.874;10.186;2022-08-21T00:30:45;3.07;;;1.60;;
44438;SDS011;30145;48.874;10.186;2022-08-21T00:33:13;3.30;;;1.97;;
44438;SDS011;30145;48.874;10.186;2022-08-21T00:35:41;3.60;;;1.70;;
44438;SDS011;30145;48.874;10.186;2022-08-21T00:38:09;3.00;;;1.97;;
44438;SDS011;30145;48.874;10.186;2022-08-21T00:40:58;3.37;;;2.33;;
44438;SDS011;30145;48.874;10.186;2022-08-21T00:43:29;2.57;;;1.60;;
44438;SDS011;30145;48.874;10.186;2022-08-21T00:45:58;4.00;;;1.93;;
44438;SDS011;30145;48.874;10.186;2022-08-21T00:48:26;3.70;;;1.83;;
44438;SDS011;30145;48.874;10.186;2022-08-21T00:51:01;5.00;;;1.80;;
44438;SDS011;30145;48.874;10.186;2022-08-21T00:53:31;3.90;;;2.00;;
44438;SDS011;30145;48.874;10.186;2022-08-21T00:55:59;3.27;;;1.93;;
44438;SDS011;30145;48.874;10.186;2022-08-21T00:58:29;4.13;;;1.87;;
44438;SDS011;30145;48.874;10.186;2022-08-21T01:00:57;2.53;;;1.90;;
44438;SDS011;30145;48.874;10.186;2022-08-21T01:03:26;2.47;;;1.87;;
44438;SDS011;30145;48.874;10.186;2022-08-21T01:05:53;4.60;;;1.77;;
44438;SDS011;30145;48.874;10.186;2022-08-21T01:08:21;4.37;;;2.10;;
44438;SDS011;30145;48.874;10.186;2022-08-21T01:10:49;4.27;;;1.87;;
44438;SDS011;30145;48.874;10.186;2022-08-21T01:13:19;3.60;;;2.20;;
44438;SDS011;30145;48.874;10.186;2022-08-21T01:15:47;3.93;;;2.20;;
44438;SDS011;30145;48.874;10.186;2022-08-21T01:18:16;2.53;;;2.03;;
44438;SDS011;30145;48.874;10.186;2022-08-21T01:20:45;3.43;;;1.90;;
44438;SDS011;30145;48.874;10.186;2022-08-21T01:23:34;3.07;;;2.27;;
44438;SDS011;30145;48.874;10.186;2022-08-21T01:26:02;6.90;;;2.67;;
44438;SDS011;30145;48.874;10.186;2022-08-21T01:28:31;3.33;;;2.50;;
44438;SDS011;30145;48.874;10.186;2022-08-21T01:31:01;3.60;;;2.40;;
44438;SDS011;30145;48.874;10.186;2022-08-21T01:33:28;3.53;;;2.63;;
44438;SDS011;30145;48.874;10.186;2022-08-21T01:35:55;4.27;;;2.70;;
44438;SDS011;30145;48.874;10.186;2022-08-21T01:38:22;4.67;;;2.40;;
44438;SDS011;30145;48.874;10.186;2022-08-21T01:40:50;3.57;;;2.60;;
44438;SDS011;30145;48.874;10.186;2022-08-21T01:43:18;5.03;;;2.50;;
44438;SDS011;30145;48.874;10.186;2022-08-21T01:45:45;3.43;;;2.53;;
44438;SDS011;30145;48.874;10.186;2022-08-21T01:48:12;3.20;;;2.80;;
44438;SDS011;30145;48.874;10.186;2022-08-21T01:50:39;3.10;;;2.80;;
44438;SDS011;30145;48.874;10.186;2022-08-21T01:53:06;3.50;;;3.20;;
44438;SDS011;30145;48.874;10.186;2022-08-21T01:55:33;7.17;;;3.30;;
44438;SDS011;30145;48.874;10.186;2022-08-21T01:58:00;4.17;;;3.30;;
44438;SDS011;30145;48.874;10.186;2022-08-21T02:00:27;4.67;;;3.27;;
44438;SDS011;30145;48.874;10.186;2022-08-21T02:02:54;4.77;;;3.83;;
44438;SDS011;30145;48.874;10.186;2022-08-21T02:05:22;3.43;;;3.13;;
44438;SDS011;30145;48.874;10.186;2022-08-21T02:07:50;3.97;;;3.57;;
44438;SDS011;30145;48.874;10.186;2022-08-21T02:10:20;5.10;;;3.67;;
44438;SDS011;30145;48.874;10.186;2022-08-21T02:12:49;3.30;;;3.00;;
44438;SDS011;30145;48.874;10.186;2022-08-21T02:15:16;3.90;;;3.50;;
44438;SDS011;30145;48.874;10.186;2022-08-21T02:17:46;5.43;;;3.37;;
44438;SDS011;30145;48.874;10.186;2022-08-21T02:20:20;3.73;;;3.37;;
44438;SDS011;30145;48.874;10.186;2022-08-21T02:22:49;3.53;;;2.77;;
44438;SDS011;30145;48.874;10.186;2022-08-21T02:25:17;5.10;;;3.30;;
44438;SDS011;30145;48.874;10.186;2022-08-21T02:27:45;3.00;;;2.70;;
44438;SDS011;30145;48.874;10.186;2022-08-21T02:30:18;3.80;;;2.53;;
44438;SDS011;30145;48.874;10.186;2022-08-21T02:32:47;3.37;;;2.77;;
44438;SDS011;30145;48.874;10.186;2022-08-21T02:35:20;5.03;;;3.20;;
44438;SDS011;30145;48.874;10.186;2022-08-21T02:37:49;3.70;;;2.93;;
44438;SDS011;30145;48.874;10.186;2022-08-21T02:40:19;3.20;;;2.70;;
44438;SDS011;30145;48.874;10.186;2022-08-21T02:42:48;4.90;;;3.43;;
44438;SDS011;30145;48.874;10.186;2022-08-21T02:45:15;4.20;;;3.37;;
44438;SDS011;30145;48.874;10.186;2022-08-21T02:47:48;3.33;;;2.93;;
44438;SDS011;30145;48.874;10.186;2022-08-21T02:50:20;5.23;;;2.90;;
44438;SDS011;30145;48.874;10.186;2022-08-21T02:52:50;4.03;;;3.20;;
44438;SDS011;30145;48.874;10.186;2022-08-21T02:55:19;3.63;;;3.13;;
44438;SDS011;30145;48.874;10.186;2022-08-21T02:57:47;5.73;;;3.90;;
44438;SDS011;30145;48.874;10.186;2022-08-21T03:00:14;3.60;;;3.00;;
44438;SDS011;30145;48.874;10.186;2022-08-21T03:02:42;4.93;;;3.30;;
44438;SDS011;30145;48.874;10.186;2022-08-21T03:05:09;4.33;;;3.70;;
44438;SDS011;30145;48.874;10.186;2022-08-21T03:07:37;5.60;;;3.70;;
44438;SDS011;30145;48.874;10.186;2022-08-21T03:10:05;4.37;;;3.77;;
44438;SDS011;30145;48.874;10.186;2022-08-21T03:12:33;6.07;;;3.53;;
44438;SDS011;30145;48.874;10.186;2022-08-21T03:15:05;4.20;;;3.80;;
44438;SDS011;30145;48.874;10.186;2022-08-21T03:17:33;4.70;;;3.53;;
44438;SDS011;30145;48.874;10.186;2022-08-21T03:20:01;4.10;;;3.47;;
44438;SDS011;30145;48.874;10.186;2022-08-21T03:22:29;4.53;;;3.70;;
44438;SDS011;30145;48.874;10.186;2022-08-21T03:24:56;4.73;;;3.87;;
44438;SDS011;30145;48.874;10.186;2022-08-21T03:27:24;5.70;;;3.80;;
44438;SDS011;30145;48.874;10.186;2022-08-21T03:29:53;5.63;;;3.60;;
44438;SDS011;30145;48.874;10.186;2022-08-21T03:32:21;4.17;;;3.70;;
44438;SDS011;30145;48.874;10.186;2022-08-21T03:34:48;4.97;;;3.80;;
44438;SDS011;30145;48.874;10.186;2022-08-21T03:37:15;5.73;;;4.10;;
44438;SDS011;30145;48.874;10.186;2022-08-21T03:39:42;4.63;;;3.60;;
44438;SDS011;30145;48.874;10.186;2022-08-21T03:42:09;7.20;;;4.10;;
44438;SDS011;30145;48.874;10.186;2022-08-21T03:44:37;5.03;;;4.03;;
44438;SDS011;30145;48.874;10.186;2022-08-21T03:47:06;5.27;;;4.77;;
44438;SDS011;30145;48.874;10.186;2022-08-21T03:49:33;5.13;;;4.63;;
44438;SDS011;30145;48.874;10.186;2022-08-21T03:52:01;7.33;;;5.17;;
44438;SDS011;30145;48.874;10.186;2022-08-21T03:54:28;8.10;;;5.40;;
44438;SDS011;30145;48.874;10.186;2022-08-21T03:56:55;6.70;;;5.80;;
44438;SDS011;30145;48.874;10.186;2022-08-21T03:59:22;6.07;;;5.20;;
44438;SDS011;30145;48.874;10.186;2022-08-21T04:01:54;5.93;;;5.30;;
44438;SDS011;30145;48.874;10.186;2022-08-21T04:04:22;8.50;;;5.10;;
44438;SDS011;30145;48.874;10.186;2022-08-21T04:06:49;6.37;;;5.47;;
44438;SDS011;30145;48.874;10.186;2022-08-21T04:09:18;6.93;;;5.60;;
44438;SDS011;30145;48.874;10.186;2022-08-21T04:11:45;5.93;;;5.33;;
44438;SDS011;30145;48.874;10.186;2022-08-21T04:14:14;5.43;;;4.93;;
44438;SDS011;30145;48.874;10.186;2022-08-21T04:16:42;6.53;;;4.80;;
44438;SDS011;30145;48.874;10.186;2022-08-21T04:19:09;4.90;;;4.50;;
44438;SDS011;30145;48.874;10.186;2022-08-21T04:21:37;7.40;;;5.97;;
44438;SDS011;30145;48.874;10.186;2022-08-21T04:24:05;8.57;;;5.63;;
44438;SDS011;30145;48.874;10.186;2022-08-21T04:26:34;6.03;;;5.17;;
44438;SDS011;30145;48.874;10.186;2022-08-21T04:29:01;8.03;;;5.37;;
44438;SDS011;30145;48.874;10.186;2022-08-21T04:31:28;8.30;;;5.47;;
44438;SDS011;30145;48.874;10.186;2022-08-21T04:33:55;5.80;;;5.17;;
44438;SDS011;30145;48.874;10.186;2022-08-21T04:36:23;6.07;;;5.47;;
44438;SDS011;30145;48.874;10.186;2022-08-21T04:38:50;7.10;;;5.57;;
44438;SDS011;30145;48.874;10.186;2022-08-21T04:41:17;5.83;;;5.23;;
44438;SDS011;30145;48.874;10.186;2022-08-21T04:43:45;6.90;;;5.40;;
44438;SDS011;30145;48.874;10.186;2022-08-21T04:46:12;6.40;;;4.93;;
44438;SDS011;30145;48.874;10.186;2022-08-21T04:48:39;5.47;;;4.97;;
44438;SDS011;30145;48.874;10.186;2022-08-21T04:51:11;6.23;;;5.40;;
44438;SDS011;30145;48.874;10.186;2022-08-21T04:53:41;6.67;;;5.97;;
44438;SDS011;30145;48.874;10.186;2022-08-21T04:56:47;6.10;;;5.50;;
44438;SDS011;30145;48.874;10.186;2022-08-21T04:59:21;6.27;;;5.07;;
44438;SDS011;30145;48.874;10.186;2022-08-21T05:01:50;6.27;;;4.93;;
44438;SDS011;30145;48.874;10.186;2022-08-21T05:04:18;6.57;;;5.80;;
44438;SDS011;30145;48.874;10.186;2022-08-21T05:06:47;5.60;;;5.10;;
44438;SDS011;30145;48.874;10.186;2022-08-21T05:09:16;7.40;;;5.10;;
44438;SDS011;30145;48.874;10.186;2022-08-21T05:11:44;6.73;;;5.77;;
44438;SDS011;30145;48.874;10.186;2022-08-21T05:14:11;6.10;;;4.73;;
44438;SDS011;30145;48.874;10.186;2022-08-21T05:16:39;5.43;;;4.90;;
44438;SDS011;30145;48.874;10.186;2022-08-21T05:19:08;6.47;;;5.87;;
44438;SDS011;30145;48.874;10.186;2022-08-21T05:21:36;6.40;;;5.13;;
44438;SDS011;30145;48.874;10.186;2022-08-21T05:24:05;5.97;;;5.33;;
44438;SDS011;30145;48.874;10.186;2022-08-21T05:26:32;7.20;;;6.00;;
44438;SDS011;30145;48.874;10.186;2022-08-21T05:28:59;6.83;;;5.47;;
44438;SDS011;30145;48.874;10.186;2022-08-21T05:31:26;6.37;;;5.50;;
44438;SDS011;30145;48.874;10.186;2022-08-21T05:33:53;5.97;;;5.37;;
44438;SDS011;30145;48.874;10.186;2022-08-21T05:36:20;6.40;;;5.67;;
44438;SDS011;30145;48.874;10.186;2022-08-21T05:38:48;5.73;;;5.13;;
44438;SDS011;30145;48.874;10.186;2022-08-21T05:41:16;7.27;;;5.13;;
44438;SDS011;30145;48.874;10.186;2022-08-21T05:43:43;7.40;;;5.27;;
44438;SDS011;30145;48.874;10.186;2022-08-21T05:46:10;6.83;;;5.07;;
44438;SDS011;30145;48.874;10.186;2022-08-21T05:48:37;6.13;;;5.20;;
44438;SDS011;30145;48.874;10.186;2022-08-21T05:51:05;5.33;;;4.83;;
44438;SDS011;30145;48.874;10.186;2022-08-21T05:53:34;6.87;;;4.93;;
44438;SDS011;30145;48.874;10.186;2022-08-21T05:56:02;5.20;;;4.37;;
44438;SDS011;30145;48.874;10.186;2022-08-21T05:58:31;5.77;;;4.47;;
44438;SDS011;30145;48.874;10.186;2022-08-21T06:00:59;5.17;;;4.33;;
44438;SDS011;30145;48.874;10.186;2022-08-21T06:03:35;5.30;;;4.80;;
44438;SDS011;30145;48.874;10.186;2022-08-21T06:06:04;4.43;;;4.03;;
44438;SDS011;30145;48.874;10.186;2022-08-21T06:08:31;5.17;;;3.97;;
44438;SDS011;30145;48.874;10.186;2022-08-21T06:10:59;4.67;;;4.10;;
44438;SDS011;30145;48.874;10.186;2022-08-21T06:13:27;5.07;;;4.47;;
44438;SDS011;30145;48.874;10.186;2022-08-21T06:16:05;4.67;;;3.77;;
44438;SDS011;30145;48.874;10.186;2022-08-21T06:18:35;6.13;;;4.43;;
44438;SDS011;30145;48.874;10.186;2022-08-21T06:21:03;4.40;;;3.80;;
44438;SDS011;30145;48.874;10.186;2022-08-21T06:23:30;5.93;;;4.13;;
44438;SDS011;30145;48.874;10.186;2022-08-21T06:25:58;4.83;;;3.70;;
44438;SDS011;30145;48.874;10.186;2022-08-21T06:28:25;5.60;;;4.07;;
44438;SDS011;30145;48.874;10.186;2022-08-21T06:30:52;6.47;;;3.87;;
44438;SDS011;30145;48.874;10.186;2022-08-21T06:33:19;5.63;;;4.10;;
44438;SDS011;30145;48.874;10.186;2022-08-21T06:35:46;3.80;;;3.23;;
44438;SDS011;30145;48.874;10.186;2022-08-21T06:38:13;6.50;;;4.17;;
44438;SDS011;30145;48.874;10.186;2022-08-21T06:40:40;5.27;;;3.90;;
44438;SDS011;30145;48.874;10.186;2022-08-21T06:43:09;5.23;;;4.13;;
44438;SDS011;30145;48.874;10.186;2022-08-21T06:45:39;6.50;;;3.80;;
44438;SDS011;30145;48.874;10.186;2022-08-21T06:48:07;5.53;;;4.00;;
44438;SDS011;30145;48.874;10.186;2022-08-21T06:50:34;5.63;;;4.30;;
44438;SDS011;30145;48.874;10.186;2022-08-21T06:53:09;6.80;;;3.80;;
44438;SDS011;30145;48.874;10.186;2022-08-21T06:55:37;4.97;;;3.77;;
44438;SDS011;30145;48.874;10.186;2022-08-21T06:58:05;6.63;;;4.17;;
44438;SDS011;30145;48.874;10.186;2022-08-21T07:00:33;5.60;;;3.80;;
44438;SDS011;30145;48.874;10.186;2022-08-21T07:03:01;5.63;;;3.83;;
44438;SDS011;30145;48.874;10.186;2022-08-21T07:05:29;6.37;;;4.87;;
44438;SDS011;30145;48.874;10.186;2022-08-21T07:07:57;7.00;;;3.97;;
44438;SDS011;30145;48.874;10.186;2022-08-21T07:10:27;6.13;;;4.80;;
44438;SDS011;30145;48.874;10.186;2022-08-21T07:12:54;6.00;;;4.60;;
44438;SDS011;30145;48.874;10.186;2022-08-21T07:15:21;6.23;;;4.57;;
44438;SDS011;30145;48.874;10.186;2022-08-21T07:17:49;8.43;;;5.70;;
44438;SDS011;30145;48.874;10.186;2022-08-21T07:20:16;7.53;;;4.70;;
44438;SDS011;30145;48.874;10.186;2022-08-21T07:22:43;5.30;;;4.47;;
44438;SDS011;30145;48.874;10.186;2022-08-21T07:25:10;7.83;;;4.73;;
44438;SDS011;30145;48.874;10.186;2022-08-21T07:27:37;7.90;;;4.60;;
44438;SDS011;30145;48.874;10.186;2022-08-21T07:30:05;5.10;;;4.60;;
44438;SDS011;30145;48.874;10.186;2022-08-21T07:32:33;7.77;;;5.00;;
44438;SDS011;30145;48.874;10.186;2022-08-21T07:35:00;8.00;;;5.33;;
44438;SDS011;30145;48.874;10.186;2022-08-21T07:37:27;7.00;;;5.00;;
44438;SDS011;30145;48.874;10.186;2022-08-21T07:39:54;6.73;;;4.97;;
44438;SDS011;30145;48.874;10.186;2022-08-21T07:42:21;7.53;;;5.20;;
44438;SDS011;30145;48.874;10.186;2022-08-21T07:44:48;7.47;;;5.50;;
44438;SDS011;30145;48.874;10.186;2022-08-21T07:47:15;9.07;;;5.03;;
44438;SDS011;30145;48.874;10.186;2022-08-21T07:49:42;9.37;;;5.20;;
44438;SDS011;30145;48.874;10.186;2022-08-21T07:52:09;6.47;;;4.77;;
44438;SDS011;30145;48.874;10.186;2022-08-21T07:54:36;6.43;;;5.43;;
44438;SDS011;30145;48.874;10.186;2022-08-21T07:57:03;8.43;;;5.27;;
44438;SDS011;30145;48.874;10.186;2022-08-21T07:59:30;7.83;;;5.70;;
44438;SDS011;30145;48.874;10.186;2022-08-21T08:01:58;7.50;;;5.07;;
44438;SDS011;30145;48.874;10.186;2022-08-21T08:04:25;5.70;;;4.80;;
44438;SDS011;30145;48.874;10.186;2022-08-21T08:06:52;8.60;;;5.57;;
44438;SDS011;30145;48.874;10.186;2022-08-21T08:09:19;8.60;;;4.80;;
44438;SDS011;30145;48.874;10.186;2022-08-21T08:11:46;7.70;;;4.73;;
44438;SDS011;30145;48.874;10.186;2022-08-21T08:14:13;6.17;;;4.80;;
44438;SDS011;30145;48.874;10.186;2022-08-21T08:16:42;5.47;;;4.50;;
44438;SDS011;30145;48.874;10.186;2022-08-21T08:19:09;7.43;;;4.63;;
44438;SDS011;30145;48.874;10.186;2022-08-21T08:21:36;4.87;;;4.00;;
44438;SDS011;30145;48.874;10.186;2022-08-21T08:24:05;6.70;;;4.70;;
44438;SDS011;30145;48.874;10.186;2022-08-21T08:26:32;7.47;;;4.90;;
44438;SDS011;30145;48.874;10.186;2022-08-21T08:28:59;7.87;;;4.60;;
44438;SDS011;30145;48.874;10.186;2022-08-21T08:31:26;6.23;;;4.67;;
44438;SDS011;30145;48.874;10.186;2022-08-21T08:33:54;6.57;;;5.40;;
44438;SDS011;30145;48.874;10.186;2022-08-21T08:36:21;5.00;;;4.10;;
44438;SDS011;30145;48.874;10.186;2022-08-21T08:39:02;6.50;;;4.63;;
44438;SDS011;30145;48.874;10.186;2022-08-21T08:41:31;5.60;;;4.53;;
44438;SDS011;30145;48.874;10.186;2022-08-21T08:44:00;5.57;;;4.50;;
44438;SDS011;30145;48.874;10.186;2022-08-21T08:46:42;6.80;;;4.73;;
44438;SDS011;30145;48.874;10.186;2022-08-21T08:49:19;7.97;;;5.00;;
44438;SDS011;30145;48.874;10.186;2022-08-21T08:52:15;7.90;;;5.13;;
44438;SDS011;30145;48.874;10.186;2022-08-21T08:54:39;8.00;;;5.03;;
44438;SDS011;30145;48.874;10.186;2022-08-21T08:57:14;7.57;;;4.40;;
44438;SDS011;30145;48.874;10.186;2022-08-21T08:59:44;7.63;;;4.37;;
44438;SDS011;30145;48.874;10.186;2022-08-21T09:02:16;7.00;;;4.57;;
44438;SDS011;30145;48.874;10.186;2022-08-21T09:04:45;7.60;;;4.80;;
44438;SDS011;30145;48.874;10.186;2022-08-21T09:07:35;8.20;;;4.87;;
44438;SDS011;30145;48.874;10.186;2022-08-21T09:13:27;6.10;;;4.60;;
44438;SDS011;30145;48.874;10.186;2022-08-21T09:16:14;4.97;;;3.57;;
44438;SDS011;30145;48.874;10.186;2022-08-21T09:19:06;5.80;;;4.47;;
44438;SDS011;30145;48.874;10.186;2022-08-21T09:24:57;9.17;;;3.67;;
44438;SDS011;30145;48.874;10.186;2022-08-21T09:27:35;4.97;;;3.57;;
44438;SDS011;30145;48.874;10.186;2022-08-21T09:30:04;5.47;;;3.80;;
44438;SDS011;30145;48.874;10.186;2022-08-21T09:32:32;6.53;;;3.90;;
44438;SDS011;30145;48.874;10.186;2022-08-21T09:35:11;6.30;;;4.40;;
44438;SDS011;30145;48.874;10.186;2022-08-21T09:40:33;5.20;;;3.53;;
44438;SDS011;30145;48.874;10.186;2022-08-21T09:43:16;5.37;;;3.60;;
44438;SDS011;30145;48.874;10.186;2022-08-21T09:45:45;5.77;;;4.07;;
44438;SDS011;30145;48.874;10.186;2022-08-21T09:48:21;6.43;;;3.63;;
44438;SDS011;30145;48.874;10.186;2022-08-21T09:50:49;7.50;;;3.57;;
44438;SDS011;30145;48.874;10.186;2022-08-21T09:53:22;6.03;;;3.53;;
44438;SDS011;30145;48.874;10.186;2022-08-21T09:55:59;4.73;;;2.90;;
44438;SDS011;30145;48.874;10.186;2022-08-21T09:58:50;5.47;;;3.50;;
44438;SDS011;30145;48.874;10.186;2022-08-21T10:01:22;4.33;;;3.40;;
44438;SDS011;30145;48.874;10.186;2022-08-21T10:07:10;5.33;;;3.20;;
44438;SDS011;30145;48.874;10.186;2022-08-21T10:09:39;7.97;;;3.53;;
44438;SDS011;30145;48.874;10.186;2022-08-21T10:12:21;6.40;;;3.43;;
44438;SDS011;30145;48.874;10.186;2022-08-21T10:17:32;5.50;;;3.17;;
44438;SDS011;30145;48.874;10.186;2022-08-21T10:20:14;5.27;;;3.83;;
44438;SDS011;30145;48.874;10.186;2022-08-21T10:29:02;6.57;;;3.73;;
44438;SDS011;30145;48.874;10.186;2022-08-21T10:37:41;5.17;;;3.50;;
44438;SDS011;30145;48.874;10.186;2022-08-21T10:45:57;5.00;;;3.17;;
44438;SDS011;30145;48.874;10.186;2022-08-21T10:48:57;4.63;;;3.20;;
44438;SDS011;30145;48.874;10.186;2022-08-21T10:57:04;5.80;;;3.20;;
44438;SDS011;30145;48.874;10.186;2022-08-21T10:59:47;4.93;;;2.97;;
44438;SDS011;30145;48.874;10.186;2022-08-21T11:02:31;4.23;;;3.30;;
44438;SDS011;30145;48.874;10.186;2022-08-21T11:05:14;4.97;;;2.40;;
44438;SDS011;30145;48.874;10.186;2022-08-21T11:07:51;4.70;;;2.83;;
44438;SDS011;30145;48.874;10.186;2022-08-21T11:10:21;3.83;;;2.57;;
44438;SDS011;30145;48.874;10.186;2022-08-21T11:12:59;5.70;;;3.30;;
44438;SDS011;30145;48.874;10.186;2022-08-21T11:18:33;5.37;;;2.97;;
44438;SDS011;30145;48.874;10.186;2022-08-21T11:21:20;4.20;;;2.63;;
44438;SDS011;30145;48.874;10.186;2022-08-21T11:24:15;3.23;;;2.37;;
44438;SDS011;30145;48.874;10.186;2022-08-21T11:26:51;3.13;;;2.57;;
44438;SDS011;30145;48.874;10.186;2022-08-21T11:29:29;4.73;;;2.93;;
44438;SDS011;30145;48.874;10.186;2022-08-21T11:34:47;4.77;;;2.50;;
44438;SDS011;30145;48.874;10.186;2022-08-21T11:45:45;3.47;;;2.40;;
44438;SDS011;30145;48.874;10.186;2022-08-21T11:50:55;4.47;;;2.40;;
44438;SDS011;30145;48.874;10.186;2022-08-21T11:53:33;6.40;;;2.80;;
44438;SDS011;30145;48.874;10.186;2022-08-21T11:56:06;5.90;;;3.00;;
44438;SDS011;30145;48.874;10.186;2022-08-21T11:58:43;3.13;;;2.10;;
44438;SDS011;30145;48.874;10.186;2022-08-21T12:01:16;3.97;;;2.60;;
44438;SDS011;30145;48.874;10.186;2022-08-21T12:03:53;4.53;;;2.63;;
44438;SDS011;30145;48.874;10.186;2022-08-21T12:06:28;3.07;;;2.20;;
44438;SDS011;30145;48.874;10.186;2022-08-21T12:09:03;4.43;;;2.30;;
44438;SDS011;30145;48.874;10.186;2022-08-21T12:11:32;5.10;;;2.57;;
44438;SDS011;30145;48.874;10.186;2022-08-21T12:14:16;2.33;;;1.90;;
44438;SDS011;30145;48.874;10.186;2022-08-21T12:16:45;3.50;;;2.30;;
44438;SDS011;30145;48.874;10.186;2022-08-21T12:19:28;4.10;;;2.60;;
44438;SDS011;30145;48.874;10.186;2022-08-21T12:26:55;3.37;;;2.30;;
44438;SDS011;30145;48.874;10.186;2022-08-21T12:29:31;3.47;;;2.33;;
44438;SDS011;30145;48.874;10.186;2022-08-21T12:32:02;4.07;;;2.57;;
44438;SDS011;30145;48.874;10.186;2022-08-21T12:39:57;3.00;;;2.40;;
44438;SDS011;30145;48.874;10.186;2022-08-21T12:42:39;4.43;;;2.57;;
44438;SDS011;30145;48.874;10.186;2022-08-21T12:50:51;4.70;;;2.53;;
44438;SDS011;30145;48.874;10.186;2022-08-21T12:53:26;5.00;;;2.73;;
44438;SDS011;30145;48.874;10.186;2022-08-21T12:56:15;3.47;;;2.63;;
44438;SDS011;30145;48.874;10.186;2022-08-21T12:58:53;3.80;;;2.30;;
44438;SDS011;30145;48.874;10.186;2022-08-21T13:01:25;3.53;;;2.20;;
44438;SDS011;30145;48.874;10.186;2022-08-21T13:03:57;3.90;;;2.40;;
44438;SDS011;30145;48.874;10.186;2022-08-21T13:06:26;3.42;;;2.00;;
44438;SDS011;30145;48.874;10.186;2022-08-21T13:08:56;2.72;;;1.98;;
44438;SDS011;30145;48.874;10.186;2022-08-21T13:11:25;3.83;;;2.15;;
44438;SDS011;30145;48.874;10.186;2022-08-21T13:13:52;4.32;;;2.28;;
44438;SDS011;30145;48.874;10.186;2022-08-21T13:16:22;3.75;;;2.58;;
44438;SDS011;30145;48.874;10.186;2022-08-21T13:18:56;2.30;;;2.10;;
44438;SDS011;30145;48.874;10.186;2022-08-21T13:21:29;4.55;;;2.42;;
44438;SDS011;30145;48.874;10.186;2022-08-21T13:24:15;3.40;;;2.40;;
44438;SDS011;30145;48.874;10.186;2022-08-21T13:32:31;3.05;;;2.10;;
44438;SDS011;30145;48.874;10.186;2022-08-21T13:35:11;2.92;;;2.25;;
44438;SDS011;30145;48.874;10.186;2022-08-21T13:37:41;4.40;;;2.03;;
44438;SDS011;30145;48.874;10.186;2022-08-21T13:40:14;3.67;;;2.53;;
44438;SDS011;30145;48.874;10.186;2022-08-21T13:42:45;2.67;;;2.05;;
44438;SDS011;30145;48.874;10.186;2022-08-21T13:45:14;3.53;;;1.85;;
44438;SDS011;30145;48.874;10.186;2022-08-21T13:47:43;3.55;;;2.03;;
44438;SDS011;30145;48.874;10.186;2022-08-21T13:50:13;2.53;;;1.77;;
44438;SDS011;30145;48.874;10.186;2022-08-21T13:52:49;3.67;;;1.90;;
44438;SDS011;30145;48.874;10.186;2022-08-21T13:55:22;4.35;;;2.05;;
44438;SDS011;30145;48.874;10.186;2022-08-21T13:57:58;2.95;;;1.95;;
44438;SDS011;30145;48.874;10.186;2022-08-21T14:00:28;2.17;;;1.98;;
44438;SDS011;30145;48.874;10.186;2022-08-21T14:03:03;3.50;;;2.08;;
44438;SDS011;30145;48.874;10.186;2022-08-21T14:05:42;3.38;;;2.00;;
44438;SDS011;30145;48.874;10.186;2022-08-21T14:08:13;4.07;;;2.13;;
44438;SDS011;30145;48.874;10.186;2022-08-21T14:10:43;3.85;;;2.42;;
44438;SDS011;30145;48.874;10.186;2022-08-21T14:19:20;3.72;;;2.28;;
44438;SDS011;30145;48.874;10.186;2022-08-21T14:22:01;4.13;;;2.30;;
44438;SDS011;30145;48.874;10.186;2022-08-21T14:24:29;4.03;;;2.20;;
44438;SDS011;30145;48.874;10.186;2022-08-21T14:27:04;3.13;;;2.53;;
44438;SDS011;30145;48.874;10.186;2022-08-21T14:29:42;2.45;;;2.25;;
44438;SDS011;30145;48.874;10.186;2022-08-21T14:32:15;3.00;;;2.15;;
44438;SDS011;30145;48.874;10.186;2022-08-21T14:34:45;3.50;;;2.30;;
44438;SDS011;30145;48.874;10.186;2022-08-21T14:37:12;3.03;;;2.35;;
44438;SDS011;30145;48.874;10.186;2022-08-21T14:39:39;4.60;;;2.28;;
44438;SDS011;30145;48.874;10.186;2022-08-21T14:42:08;2.20;;;2.00;;
44438;SDS011;30145;48.874;10.186;2022-08-21T14:44:35;3.13;;;2.10;;
44438;SDS011;30145;48.874;10.186;2022-08-21T14:47:03;3.72;;;2.55;;
44438;SDS011;30145;48.874;10.186;2022-08-21T14:49:30;3.70;;;2.60;;
44438;SDS011;30145;48.874;10.186;2022-08-21T14:51:58;3.30;;;2.20;;
44438;SDS011;30145;48.874;10.186;2022-08-21T14:54:29;4.55;;;2.80;;
44438;SDS011;30145;48.874;10.186;2022-08-21T14:56:58;3.95;;;2.58;;
44438;SDS011;30145;48.874;10.186;2022-08-21T14:59:27;3.35;;;2.47;;
44438;SDS011;30145;48.874;10.186;2022-08-21T15:01:54;4.15;;;2.60;;
44438;SDS011;30145;48.874;10.186;2022-08-21T15:04:22;3.33;;;2.45;;
44438;SDS011;30145;48.874;10.186;2022-08-21T15:06:49;3.60;;;2.60;;
44438;SDS011;30145;48.874;10.186;2022-08-21T15:09:16;4.60;;;2.67;;
44438;SDS011;30145;48.874;10.186;2022-08-21T15:11:44;4.47;;;2.53;;
44438;SDS011;30145;48.874;10.186;2022-08-21T15:14:13;4.20;;;2.57;;
44438;SDS011;30145;48.874;10.186;2022-08-21T15:16:47;2.33;;;2.13;;
44438;SDS011;30145;48.874;10.186;2022-08-21T15:19:15;3.65;;;2.20;;
44438;SDS011;30145;48.874;10.186;2022-08-21T15:21:46;3.47;;;2.40;;
44438;SDS011;30145;48.874;10.186;2022-08-21T15:24:14;3.25;;;2.03;;
44438;SDS011;30145;48.874;10.186;2022-08-21T15:26:45;4.88;;;2.45;;
44438;SDS011;30145;48.874;10.186;2022-08-21T15:29:13;3.65;;;2.33;;
44438;SDS011;30145;48.874;10.186;2022-08-21T15:31:51;4.43;;;2.42;;
44438;SDS011;30145;48.874;10.186;2022-08-21T15:34:26;3.78;;;2.38;;
44438;SDS011;30145;48.874;10.186;2022-08-21T15:36:55;3.22;;;2.15;;
44438;SDS011;30145;48.874;10.186;2022-08-21T15:39:26;4.47;;;2.10;;
44438;SDS011;30145;48.874;10.186;2022-08-21T15:41:54;3.30;;;2.13;;
44438;SDS011;30145;48.874;10.186;2022-08-21T15:44:21;2.55;;;2.30;;
44438;SDS011;30145;48.874;10.186;2022-08-21T15:46:48;2.70;;;2.13;;
44438;SDS011;30145;48.874;10.186;2022-08-21T15:49:15;3.58;;;2.25;;
44438;SDS011;30145;48.874;10.186;2022-08-21T15:51:42;2.83;;;2.35;;
44438;SDS011;30145;48.874;10.186;2022-08-21T15:54:09;2.70;;;1.80;;
44438;SDS011;30145;48.874;10.186;2022-08-21T15:59:05;3.70;;;2.10;;
44438;SDS011;30145;48.874;10.186;2022-08-21T16:06:28;2.92;;;1.92;;
44438;SDS011;30145;48.874;10.186;2022-08-21T16:08:57;3.55;;;1.90;;
44438;SDS011;30145;48.874;10.186;2022-08-21T16:11:24;2.47;;;1.90;;
44438;SDS011;30145;48.874;10.186;2022-08-21T16:13:51;4.18;;;1.70;;
44438;SDS011;30145;48.874;10.186;2022-08-21T16:16:22;3.17;;;2.25;;
44438;SDS011;30145;48.874;10.186;2022-08-21T16:18:50;2.63;;;1.88;;
44438;SDS011;30145;48.874;10.186;2022-08-21T16:21:24;3.08;;;1.90;;
44438;SDS011;30145;48.874;10.186;2022-08-21T16:23:51;3.08;;;2.28;;